Smit Barbados — MSDU8 — position and weather

sailwx.info

Track history (hours):
 
Tides and Currents Weather Stations Pressure Air Temp Water Temp Dewpoint Dewpoint Depression Visibility Wind Speed Wind Dir Waves Ship Positions

Smit Barbados

Last reported at 2016-Feb-08 16:33 UTC. Time now 2016-Feb-08 17:02 UTC.
Position N 53°26' W 002°60'.

Length 30 m; draft 4.8 m.

Type: Tug. MMSI: 235055303.

Date/timePositionNaut miles runAvg speedWind from/ knotsBaromVisibWave heightAir tempDewpointWater temp
2016-Feb-08 16:33N 53°26' W 002°60'0 0.0
2016-Feb-08 15:33N 53°26' W 002°60'0 0.0
2016-Feb-08 14:33N 53°26' W 002°60'0 0.2
2016-Feb-08 13:33N 53°26' W 003°00'0 0.0
2016-Feb-08 12:33N 53°26' W 003°00'1 0.6
2016-Feb-08 11:33N 53°26' W 003°01'7 7.3
2016-Feb-08 10:33N 53°19' W 002°57'0 0.2
2016-Feb-08 09:33N 53°19' W 002°57'4 4.0
2016-Feb-08 08:33N 53°23' W 002°60'3 2.9
2016-Feb-08 07:33N 53°26' W 002°60'0 0.0
2016-Feb-08 06:33N 53°26' W 002°60'0 0.0
2016-Feb-08 05:33N 53°26' W 002°60'0 0.0
2016-Feb-08 04:33N 53°26' W 002°60'0 0.0
2016-Feb-08 03:33N 53°26' W 002°60'0 0.0
2016-Feb-08 02:33N 53°26' W 002°60'0 0.0
2016-Feb-08 01:33N 53°26' W 002°60'0 0.0
2016-Feb-08 00:33N 53°26' W 002°60'0 0.0
2016-Feb-07 23:33N 53°26' W 002°60'0 0.0
2016-Feb-07 22:33N 53°26' W 002°60'2 2.0
2016-Feb-07 21:33N 53°28' W 003°01'1 0.7
2016-Feb-07 20:33N 53°27' W 003°01'0 0.1
2016-Feb-07 19:33N 53°27' W 003°01'1 1.4
2016-Feb-07 18:33N 53°26' W 002°60'0 0.0
2016-Feb-07 17:33N 53°26' W 002°60'0 0.0
2016-Feb-07 16:33N 53°26' W 002°60'0 0.0
2016-Feb-07 15:33N 53°26' W 002°60'0 0.0
2016-Feb-07 14:33N 53°26' W 002°60'0 0.0
2016-Feb-07 13:33N 53°26' W 002°60'0 0.4
2016-Feb-07 12:33N 53°26' W 003°00'0 0.3
2016-Feb-07 11:33N 53°26' W 003°01'0 0.2
2016-Feb-07 10:33N 53°26' W 003°01'0 0.4
2016-Feb-07 09:33N 53°27' W 003°01'0 0.4
2016-Feb-07 08:33N 53°27' W 003°01'0 0.0
2016-Feb-07 07:33N 53°27' W 003°01'0 0.0
2016-Feb-07 06:33N 53°27' W 003°01'1 0.6
2016-Feb-07 05:33N 53°27' W 003°01'1 0.5
2016-Feb-07 04:33N 53°28' W 003°01'0 0.0
2016-Feb-07 03:33N 53°28' W 003°01'0 0.0
2016-Feb-07 02:33N 53°28' W 003°01'0 0.0
2016-Feb-07 01:33N 53°28' W 003°01'0 0.0
2016-Feb-07 00:33N 53°28' W 003°01'1 0.5
2016-Feb-06 23:33N 53°27' W 003°01'0 0.1
2016-Feb-06 22:33N 53°27' W 003°01'1 0.7
2016-Feb-06 21:33N 53°28' W 003°01'2 2.0
2016-Feb-06 20:33N 53°26' W 002°60'0 0.0
2016-Feb-06 19:33N 53°26' W 002°60'0 0.0
2016-Feb-06 18:33N 53°26' W 002°60'0 0.0
2016-Feb-06 17:33N 53°26' W 002°60'0 0.0
2016-Feb-06 16:33N 53°26' W 002°60'0 0.0
2016-Feb-06 15:33N 53°26' W 002°60'0 0.0
2016-Feb-06 14:33N 53°26' W 002°60'0 0.0
2016-Feb-06 13:33N 53°26' W 002°60'0 0.0
2016-Feb-06 12:33N 53°26' W 002°60'0 0.0
2016-Feb-06 11:33N 53°26' W 002°60'0 0.0
2016-Feb-06 10:33N 53°26' W 002°60'0 0.0
2016-Feb-06 09:33N 53°26' W 002°60'0 0.0
2016-Feb-06 08:33N 53°26' W 002°60'0 0.0
2016-Feb-06 07:33N 53°26' W 002°60'0 0.0
2016-Feb-06 06:33N 53°26' W 002°60'0 0.0
2016-Feb-06 05:33N 53°26' W 002°60'0 0.0
2016-Feb-06 04:33N 53°26' W 002°60'0 0.0
2016-Feb-06 03:33N 53°26' W 002°60'0 0.0
2016-Feb-06 02:33N 53°26' W 002°60'0 0.0
2016-Feb-06 01:33N 53°26' W 002°60'0 0.0
2016-Feb-06 00:33N 53°26' W 002°60'0 0.0
2016-Feb-05 23:33N 53°26' W 002°60'0 0.0
2016-Feb-05 22:33N 53°26' W 002°60'1 1.2
2016-Feb-05 21:33N 53°27' W 003°01'0 0.5
2016-Feb-05 20:33N 53°26' W 003°01'0 0.4
2016-Feb-05 19:34N 53°26' W 003°01'1 0.5
2016-Feb-05 18:33N 53°26' W 003°00'0 0.1
2016-Feb-05 17:33N 53°26' W 002°60'0 0.0
2016-Feb-05 16:33N 53°26' W 002°60'0 0.0
2016-Feb-05 15:33N 53°26' W 002°60'0 0.0
2016-Feb-05 14:33N 53°26' W 002°60'0 0.0
2016-Feb-05 13:33N 53°26' W 002°60'0 0.0
2016-Feb-05 12:33N 53°26' W 002°60'2 1.7
2016-Feb-05 11:33N 53°27' W 003°01'0 0.5
2016-Feb-05 10:33N 53°27' W 003°01'0 0.3
2016-Feb-05 09:33N 53°27' W 003°02'8 7.7
2016-Feb-05 08:33N 53°19' W 002°57'8 8.0
2016-Feb-05 07:33N 53°27' W 003°01'1 0.5
2016-Feb-05 06:34N 53°28' W 003°01'2 1.9
2016-Feb-05 05:33N 53°26' W 002°60'0 0.0
2016-Feb-05 04:33N 53°26' W 002°60'0 0.0
2016-Feb-05 03:33N 53°26' W 002°60'0 0.0
2016-Feb-05 02:33N 53°26' W 002°60'0 0.0
2016-Feb-05 01:33N 53°26' W 002°60'0 0.0
2016-Feb-05 00:33N 53°26' W 002°60'0 0.0
2016-Feb-04 23:33N 53°26' W 002°60'0 0.0
2016-Feb-04 22:33N 53°26' W 002°60'0 0.0
2016-Feb-04 21:33N 53°26' W 002°60'1 1.2
2016-Feb-04 20:33N 53°27' W 003°01'0 0.0
2016-Feb-04 19:33N 53°27' W 003°01'1 0.6
2016-Feb-04 18:33N 53°27' W 003°01'1 0.5
2016-Feb-04 17:33N 53°27' W 003°01'1 0.7
2016-Feb-04 16:33N 53°26' W 003°01'0 0.2
2016-Feb-04 15:33N 53°26' W 003°00'1 0.5
2016-Feb-04 14:33N 53°26' W 002°60'0 0.0
2016-Feb-04 13:33N 53°26' W 002°60'0 0.0
2016-Feb-04 12:33N 53°26' W 002°60'0 0.0
2016-Feb-04 11:34N 53°26' W 002°60'0 0.0
2016-Feb-04 10:33N 53°26' W 002°60'1 0.9
2016-Feb-04 09:33N 53°27' W 003°01'0 0.5
2016-Feb-04 08:33N 53°27' W 003°01'1 0.6
2016-Feb-04 07:33N 53°27' W 003°02'0 0.0
2016-Feb-04 06:33N 53°27' W 003°02'0 0.2
2016-Feb-04 05:33N 53°28' W 003°02'2 2.0
2016-Feb-04 04:33N 53°26' W 002°60'0 0.0
2016-Feb-04 03:33N 53°26' W 002°60'0 0.0
2016-Feb-04 02:33N 53°26' W 002°60'0 0.0
2016-Feb-04 01:32N 53°26' W 002°60'0 0.0
2016-Feb-04 00:33N 53°26' W 002°60'0 0.0
2016-Feb-03 23:34N 53°26' W 002°60'0 0.0
2016-Feb-03 22:33N 53°26' W 002°60'0 0.0
2016-Feb-03 21:33N 53°26' W 002°60'2 1.7
2016-Feb-03 20:33N 53°27' W 003°01'1 0.6
2016-Feb-03 19:33N 53°27' W 003°01'0 0.2
2016-Feb-03 18:33N 53°27' W 003°01'0 0.2
2016-Feb-03 17:33N 53°27' W 003°01'1 0.8
2016-Feb-03 16:33N 53°26' W 003°01'1 0.8
2016-Feb-03 15:33N 53°27' W 003°01'0 0.2
2016-Feb-03 14:33N 53°27' W 003°01'1 0.7
2016-Feb-03 13:33N 53°28' W 003°01'2 1.8
2016-Feb-03 12:33N 53°26' W 003°00'0 0.2
2016-Feb-03 11:33N 53°26' W 002°60'0 0.0
2016-Feb-03 10:33N 53°26' W 002°60'0 0.0
2016-Feb-03 09:33N 53°26' W 002°60'0 0.0
2016-Feb-03 08:33N 53°26' W 002°60'0 0.0
2016-Feb-03 07:33N 53°26' W 002°60'0 0.0
2016-Feb-03 06:33N 53°26' W 002°60'0 0.0
2016-Feb-03 05:33N 53°26' W 002°60'0 0.0
2016-Feb-03 04:33N 53°26' W 002°60'0 0.0
2016-Feb-03 03:33N 53°26' W 002°60'0 0.0
2016-Feb-03 02:33N 53°26' W 002°60'0 0.0
2016-Feb-03 01:33N 53°26' W 002°60'0 0.0
2016-Feb-03 00:33N 53°26' W 002°60'0 0.0
2016-Feb-02 23:33N 53°26' W 002°60'0 0.0
2016-Feb-02 22:33N 53°26' W 002°60'0 0.0
2016-Feb-02 21:33N 53°26' W 002°60'0 0.0
2016-Feb-02 20:33N 53°26' W 002°60'0 0.0
2016-Feb-02 19:32N 53°26' W 002°60'0 0.0
2016-Feb-02 18:33N 53°26' W 002°60'0 0.0
2016-Feb-02 17:33N 53°26' W 002°60'0 0.0
2016-Feb-02 16:33N 53°26' W 002°60'0 0.0
2016-Feb-02 15:33N 53°26' W 002°60'0 0.0
2016-Feb-02 14:33N 53°26' W 002°60'0 0.0
2016-Feb-02 13:33N 53°26' W 002°60'0 0.0
2016-Feb-02 12:33N 53°26' W 002°60'0 0.0
2016-Feb-02 11:33N 53°26' W 002°60'0 0.0
2016-Feb-02 10:33N 53°26' W 002°60'0 0.0
2016-Feb-02 09:33N 53°26' W 002°60'0 0.0
2016-Feb-02 08:33N 53°26' W 002°60'0 0.0
2016-Feb-02 07:33N 53°26' W 002°60'0 0.0
2016-Feb-02 06:33N 53°26' W 002°60'0 0.0
2016-Feb-02 05:33N 53°26' W 002°60'0 0.0
2016-Feb-02 04:33N 53°26' W 002°60'0 0.0
2016-Feb-02 03:33N 53°26' W 002°60'0 0.0
2016-Feb-02 02:33N 53°26' W 002°60'0 0.0
2016-Feb-02 01:33N 53°26' W 002°60'0 0.0
2016-Feb-02 00:34N 53°26' W 002°60'0 0.0
2016-Feb-01 23:33N 53°26' W 002°60'0 0.0
2016-Feb-01 22:33N 53°26' W 002°60'0 0.0
2016-Feb-01 21:34N 53°26' W 002°60'0 0.0
2016-Feb-01 20:33N 53°26' W 002°60'0 0.0
2016-Feb-01 19:33N 53°26' W 002°60'0 0.0
2016-Feb-01 18:33N 53°26' W 002°60'0 0.0
2016-Feb-01 17:33N 53°26' W 002°60'0 0.0
2016-Feb-01 16:33N 53°26' W 002°60'0 0.0
2016-Feb-01 15:33N 53°26' W 002°60'0 0.0
2016-Feb-01 14:33N 53°26' W 002°60'0 0.0
2016-Feb-01 13:33N 53°26' W 002°60'0 0.0
2016-Feb-01 12:33N 53°26' W 002°60'0 0.0
2016-Feb-01 11:33N 53°26' W 002°60'0 0.0
2016-Feb-01 10:33N 53°26' W 002°60'0 0.0
2016-Feb-01 09:33N 53°26' W 002°60'0 0.0
2016-Feb-01 08:33N 53°26' W 002°60'0 0.0
2016-Feb-01 07:33N 53°26' W 002°60'0 0.0
2016-Feb-01 06:33N 53°26' W 002°60'0 0.0
2016-Feb-01 05:33N 53°26' W 002°60'0 0.0
2016-Feb-01 04:33N 53°26' W 002°60'0 0.0
2016-Feb-01 03:33N 53°26' W 002°60'0 0.0
2016-Feb-01 02:33N 53°26' W 002°60'0 0.0
2016-Feb-01 01:33N 53°26' W 002°60'0 0.0
2016-Feb-01 00:33N 53°26' W 002°60'0 0.0
2016-Jan-31 23:33N 53°26' W 002°60'0 0.0
2016-Jan-31 22:33N 53°26' W 002°60'0 0.0
2016-Jan-31 21:33N 53°26' W 002°60'0 0.0
2016-Jan-31 20:33N 53°26' W 002°60'0 0.0
2016-Jan-31 19:34N 53°26' W 002°60'0 0.0
2016-Jan-31 18:33N 53°26' W 002°60'1 1.4
2016-Jan-31 17:33N 53°27' W 003°01'0 0.1
2016-Jan-31 16:33N 53°27' W 003°01'1 0.5
2016-Jan-31 15:33N 53°28' W 003°02'1 0.5
2016-Jan-31 14:33N 53°27' W 003°01'0 0.2
2016-Jan-31 13:33N 53°27' W 003°01'0 0.0
2016-Jan-31 12:33N 53°27' W 003°01'0 0.0
2016-Jan-31 11:33N 53°27' W 003°01'0 0.2
2016-Jan-31 10:33N 53°27' W 003°01'1 0.6
2016-Jan-31 09:33N 53°28' W 003°02'0 0.0
2016-Jan-31 08:33N 53°28' W 003°02'1 0.8
2016-Jan-31 07:34N 53°27' W 003°01'1 0.6
2016-Jan-31 06:33N 53°28' W 003°01'0 0.4
2016-Jan-31 05:34N 53°27' W 003°01'0 0.0
2016-Jan-31 04:34N 53°27' W 003°01'0 0.4
2016-Jan-31 03:33N 53°27' W 003°01'1 0.6
2016-Jan-31 02:33N 53°26' W 003°01'0 0.2
2016-Jan-31 01:33N 53°26' W 003°00'0 0.2
2016-Jan-31 00:34N 53°26' W 003°00'0 0.4
2016-Jan-30 23:33N 53°26' W 002°60'0 0.0
2016-Jan-30 22:33N 53°26' W 002°60'0 0.0
2016-Jan-30 21:34N 53°26' W 002°60'0 0.0
2016-Jan-30 20:34N 53°26' W 002°60'0 0.0
2016-Jan-30 19:33N 53°26' W 002°60'0 0.0
2016-Jan-30 18:34N 53°26' W 002°60'0 0.0
2016-Jan-30 17:33N 53°26' W 002°60'0 0.0
2016-Jan-30 16:34N 53°26' W 002°60'0 0.0
2016-Jan-30 15:33N 53°26' W 002°60'0 0.0
2016-Jan-30 14:33N 53°26' W 002°60'0 0.0
2016-Jan-30 13:33N 53°26' W 002°60'1 1.4
2016-Jan-30 12:33N 53°27' W 003°01'0 0.3
2016-Jan-30 11:33N 53°27' W 003°02'1 1.4
2016-Jan-30 10:33N 53°26' W 002°60'0 0.3
2016-Jan-30 09:33N 53°26' W 003°00'1 1.3
2016-Jan-30 08:33N 53°27' W 003°01'0 0.0
2016-Jan-30 07:33N 53°27' W 003°01'0 0.0
2016-Jan-30 06:33N 53°27' W 003°01'0 0.0
2016-Jan-30 05:33N 53°27' W 003°01'0 0.0
2016-Jan-30 04:33N 53°27' W 003°01'0 0.2
2016-Jan-30 03:33N 53°27' W 003°01'1 0.6
2016-Jan-30 02:33N 53°27' W 003°01'1 0.9
2016-Jan-30 01:33N 53°28' W 003°01'1 1.3
2016-Jan-30 00:33N 53°26' W 003°01'2 2.3
2016-Jan-29 23:33N 53°24' W 003°01'0 0.4
2016-Jan-29 22:33N 53°24' W 003°02'0 0.0
2016-Jan-29 21:33N 53°24' W 003°02'0 0.0
2016-Jan-29 20:33N 53°24' W 003°02'0 0.0
2016-Jan-29 19:33N 53°24' W 003°02'0 0.0
2016-Jan-29 18:33N 53°24' W 003°02'0 0.0
2016-Jan-29 17:33N 53°24' W 003°02'0 0.0
2016-Jan-29 16:33N 53°24' W 003°02'  
Track history (hours):
 
Tides and Currents Weather Stations Pressure Air Temp Water Temp Dewpoint Dewpoint Depression Visibility Wind Speed Wind Dir Waves Ship Positions

Smit Barbados

Last reported at 2016-Feb-08 16:33 UTC. Time now 2016-Feb-08 17:02 UTC.
Position N 53°26' W 002°60'.

Length 30 m; draft 4.8 m.

Type: Tug. MMSI: 235055303.

Date/timePositionNaut miles runAvg speedWind from/ knotsBaromVisibWave heightAir tempDewpointWater temp
2016-Feb-08 16:33N 53°26' W 002°60'0 0.0
2016-Feb-08 15:33N 53°26' W 002°60'0 0.0
2016-Feb-08 14:33N 53°26' W 002°60'0 0.2
2016-Feb-08 13:33N 53°26' W 003°00'0 0.0
2016-Feb-08 12:33N 53°26' W 003°00'1 0.6
2016-Feb-08 11:33N 53°26' W 003°01'7 7.3
2016-Feb-08 10:33N 53°19' W 002°57'0 0.2
2016-Feb-08 09:33N 53°19' W 002°57'4 4.0
2016-Feb-08 08:33N 53°23' W 002°60'3 2.9
2016-Feb-08 07:33N 53°26' W 002°60'0 0.0
2016-Feb-08 06:33N 53°26' W 002°60'0 0.0
2016-Feb-08 05:33N 53°26' W 002°60'0 0.0
2016-Feb-08 04:33N 53°26' W 002°60'0 0.0
2016-Feb-08 03:33N 53°26' W 002°60'0 0.0
2016-Feb-08 02:33N 53°26' W 002°60'0 0.0
2016-Feb-08 01:33N 53°26' W 002°60'0 0.0
2016-Feb-08 00:33N 53°26' W 002°60'0 0.0
2016-Feb-07 23:33N 53°26' W 002°60'0 0.0
2016-Feb-07 22:33N 53°26' W 002°60'2 2.0
2016-Feb-07 21:33N 53°28' W 003°01'1 0.7
2016-Feb-07 20:33N 53°27' W 003°01'0 0.1
2016-Feb-07 19:33N 53°27' W 003°01'1 1.4
2016-Feb-07 18:33N 53°26' W 002°60'0 0.0
2016-Feb-07 17:33N 53°26' W 002°60'0 0.0
2016-Feb-07 16:33N 53°26' W 002°60'0 0.0
2016-Feb-07 15:33N 53°26' W 002°60'0 0.0
2016-Feb-07 14:33N 53°26' W 002°60'0 0.0
2016-Feb-07 13:33N 53°26' W 002°60'0 0.4
2016-Feb-07 12:33N 53°26' W 003°00'0 0.3
2016-Feb-07 11:33N 53°26' W 003°01'0 0.2
2016-Feb-07 10:33N 53°26' W 003°01'0 0.4
2016-Feb-07 09:33N 53°27' W 003°01'0 0.4
2016-Feb-07 08:33N 53°27' W 003°01'0 0.0
2016-Feb-07 07:33N 53°27' W 003°01'0 0.0
2016-Feb-07 06:33N 53°27' W 003°01'1 0.6
2016-Feb-07 05:33N 53°27' W 003°01'1 0.5
2016-Feb-07 04:33N 53°28' W 003°01'0 0.0
2016-Feb-07 03:33N 53°28' W 003°01'0 0.0
2016-Feb-07 02:33N 53°28' W 003°01'0 0.0
2016-Feb-07 01:33N 53°28' W 003°01'0 0.0
2016-Feb-07 00:33N 53°28' W 003°01'1 0.5
2016-Feb-06 23:33N 53°27' W 003°01'0 0.1
2016-Feb-06 22:33N 53°27' W 003°01'1 0.7
2016-Feb-06 21:33N 53°28' W 003°01'2 2.0
2016-Feb-06 20:33N 53°26' W 002°60'0 0.0
2016-Feb-06 19:33N 53°26' W 002°60'0 0.0
2016-Feb-06 18:33N 53°26' W 002°60'0 0.0
2016-Feb-06 17:33N 53°26' W 002°60'0 0.0
2016-Feb-06 16:33N 53°26' W 002°60'0 0.0
2016-Feb-06 15:33N 53°26' W 002°60'0 0.0
2016-Feb-06 14:33N 53°26' W 002°60'0 0.0
2016-Feb-06 13:33N 53°26' W 002°60'0 0.0
2016-Feb-06 12:33N 53°26' W 002°60'0 0.0
2016-Feb-06 11:33N 53°26' W 002°60'0 0.0
2016-Feb-06 10:33N 53°26' W 002°60'0 0.0
2016-Feb-06 09:33N 53°26' W 002°60'0 0.0
2016-Feb-06 08:33N 53°26' W 002°60'0 0.0
2016-Feb-06 07:33N 53°26' W 002°60'0 0.0
2016-Feb-06 06:33N 53°26' W 002°60'0 0.0
2016-Feb-06 05:33N 53°26' W 002°60'0 0.0
2016-Feb-06 04:33N 53°26' W 002°60'0 0.0
2016-Feb-06 03:33N 53°26' W 002°60'0 0.0
2016-Feb-06 02:33N 53°26' W 002°60'0 0.0
2016-Feb-06 01:33N 53°26' W 002°60'0 0.0
2016-Feb-06 00:33N 53°26' W 002°60'0 0.0
2016-Feb-05 23:33N 53°26' W 002°60'0 0.0
2016-Feb-05 22:33N 53°26' W 002°60'1 1.2
2016-Feb-05 21:33N 53°27' W 003°01'0 0.5
2016-Feb-05 20:33N 53°26' W 003°01'0 0.4
2016-Feb-05 19:34N 53°26' W 003°01'1 0.5
2016-Feb-05 18:33N 53°26' W 003°00'0 0.1
2016-Feb-05 17:33N 53°26' W 002°60'0 0.0
2016-Feb-05 16:33N 53°26' W 002°60'0 0.0
2016-Feb-05 15:33N 53°26' W 002°60'0 0.0
2016-Feb-05 14:33N 53°26' W 002°60'0 0.0
2016-Feb-05 13:33N 53°26' W 002°60'0 0.0
2016-Feb-05 12:33N 53°26' W 002°60'2 1.7
2016-Feb-05 11:33N 53°27' W 003°01'0 0.5
2016-Feb-05 10:33N 53°27' W 003°01'0 0.3
2016-Feb-05 09:33N 53°27' W 003°02'8 7.7
2016-Feb-05 08:33N 53°19' W 002°57'8 8.0
2016-Feb-05 07:33N 53°27' W 003°01'1 0.5
2016-Feb-05 06:34N 53°28' W 003°01'2 1.9
2016-Feb-05 05:33N 53°26' W 002°60'0 0.0
2016-Feb-05 04:33N 53°26' W 002°60'0 0.0
2016-Feb-05 03:33N 53°26' W 002°60'0 0.0
2016-Feb-05 02:33N 53°26' W 002°60'0 0.0
2016-Feb-05 01:33N 53°26' W 002°60'0 0.0
2016-Feb-05 00:33N 53°26' W 002°60'0 0.0
2016-Feb-04 23:33N 53°26' W 002°60'0 0.0
2016-Feb-04 22:33N 53°26' W 002°60'0 0.0
2016-Feb-04 21:33N 53°26' W 002°60'1 1.2
2016-Feb-04 20:33N 53°27' W 003°01'0 0.0
2016-Feb-04 19:33N 53°27' W 003°01'1 0.6
2016-Feb-04 18:33N 53°27' W 003°01'1 0.5
2016-Feb-04 17:33N 53°27' W 003°01'1 0.7
2016-Feb-04 16:33N 53°26' W 003°01'0 0.2
2016-Feb-04 15:33N 53°26' W 003°00'1 0.5
2016-Feb-04 14:33N 53°26' W 002°60'0 0.0
2016-Feb-04 13:33N 53°26' W 002°60'0 0.0
2016-Feb-04 12:33N 53°26' W 002°60'0 0.0
2016-Feb-04 11:34N 53°26' W 002°60'0 0.0
2016-Feb-04 10:33N 53°26' W 002°60'1 0.9
2016-Feb-04 09:33N 53°27' W 003°01'0 0.5
2016-Feb-04 08:33N 53°27' W 003°01'1 0.6
2016-Feb-04 07:33N 53°27' W 003°02'0 0.0
2016-Feb-04 06:33N 53°27' W 003°02'0 0.2
2016-Feb-04 05:33N 53°28' W 003°02'2 2.0
2016-Feb-04 04:33N 53°26' W 002°60'0 0.0
2016-Feb-04 03:33N 53°26' W 002°60'0 0.0
2016-Feb-04 02:33N 53°26' W 002°60'0 0.0
2016-Feb-04 01:32N 53°26' W 002°60'0 0.0
2016-Feb-04 00:33N 53°26' W 002°60'0 0.0
2016-Feb-03 23:34N 53°26' W 002°60'0 0.0
2016-Feb-03 22:33N 53°26' W 002°60'0 0.0
2016-Feb-03 21:33N 53°26' W 002°60'2 1.7
2016-Feb-03 20:33N 53°27' W 003°01'1 0.6
2016-Feb-03 19:33N 53°27' W 003°01'0 0.2
2016-Feb-03 18:33N 53°27' W 003°01'0 0.2
2016-Feb-03 17:33N 53°27' W 003°01'1 0.8
2016-Feb-03 16:33N 53°26' W 003°01'1 0.8
2016-Feb-03 15:33N 53°27' W 003°01'0 0.2
2016-Feb-03 14:33N 53°27' W 003°01'1 0.7
2016-Feb-03 13:33N 53°28' W 003°01'2 1.8
2016-Feb-03 12:33N 53°26' W 003°00'0 0.2
2016-Feb-03 11:33N 53°26' W 002°60'0 0.0
2016-Feb-03 10:33N 53°26' W 002°60'0 0.0
2016-Feb-03 09:33N 53°26' W 002°60'0 0.0
2016-Feb-03 08:33N 53°26' W 002°60'0 0.0
2016-Feb-03 07:33N 53°26' W 002°60'0 0.0
2016-Feb-03 06:33N 53°26' W 002°60'0 0.0
2016-Feb-03 05:33N 53°26' W 002°60'0 0.0
2016-Feb-03 04:33N 53°26' W 002°60'0 0.0
2016-Feb-03 03:33N 53°26' W 002°60'0 0.0
2016-Feb-03 02:33N 53°26' W 002°60'0 0.0
2016-Feb-03 01:33N 53°26' W 002°60'0 0.0
2016-Feb-03 00:33N 53°26' W 002°60'0 0.0
2016-Feb-02 23:33N 53°26' W 002°60'0 0.0
2016-Feb-02 22:33N 53°26' W 002°60'0 0.0
2016-Feb-02 21:33N 53°26' W 002°60'0 0.0
2016-Feb-02 20:33N 53°26' W 002°60'0 0.0
2016-Feb-02 19:32N 53°26' W 002°60'0 0.0
2016-Feb-02 18:33N 53°26' W 002°60'0 0.0
2016-Feb-02 17:33N 53°26' W 002°60'0 0.0
2016-Feb-02 16:33N 53°26' W 002°60'0 0.0
2016-Feb-02 15:33N 53°26' W 002°60'0 0.0
2016-Feb-02 14:33N 53°26' W 002°60'0 0.0
2016-Feb-02 13:33N 53°26' W 002°60'0 0.0
2016-Feb-02 12:33N 53°26' W 002°60'0 0.0
2016-Feb-02 11:33N 53°26' W 002°60'0 0.0
2016-Feb-02 10:33N 53°26' W 002°60'0 0.0
2016-Feb-02 09:33N 53°26' W 002°60'0 0.0
2016-Feb-02 08:33N 53°26' W 002°60'0 0.0
2016-Feb-02 07:33N 53°26' W 002°60'0 0.0
2016-Feb-02 06:33N 53°26' W 002°60'0 0.0
2016-Feb-02 05:33N 53°26' W 002°60'0 0.0
2016-Feb-02 04:33N 53°26' W 002°60'0 0.0
2016-Feb-02 03:33N 53°26' W 002°60'0 0.0
2016-Feb-02 02:33N 53°26' W 002°60'0 0.0
2016-Feb-02 01:33N 53°26' W 002°60'0 0.0
2016-Feb-02 00:34N 53°26' W 002°60'0 0.0
2016-Feb-01 23:33N 53°26' W 002°60'0 0.0
2016-Feb-01 22:33N 53°26' W 002°60'0 0.0
2016-Feb-01 21:34N 53°26' W 002°60'0 0.0
2016-Feb-01 20:33N 53°26' W 002°60'0 0.0
2016-Feb-01 19:33N 53°26' W 002°60'0 0.0
2016-Feb-01 18:33N 53°26' W 002°60'0 0.0
2016-Feb-01 17:33N 53°26' W 002°60'0 0.0
2016-Feb-01 16:33N 53°26' W 002°60'0 0.0
2016-Feb-01 15:33N 53°26' W 002°60'0 0.0
2016-Feb-01 14:33N 53°26' W 002°60'0 0.0
2016-Feb-01 13:33N 53°26' W 002°60'0 0.0
2016-Feb-01 12:33N 53°26' W 002°60'0 0.0
2016-Feb-01 11:33N 53°26' W 002°60'0 0.0
2016-Feb-01 10:33N 53°26' W 002°60'0 0.0
2016-Feb-01 09:33N 53°26' W 002°60'0 0.0
2016-Feb-01 08:33N 53°26' W 002°60'0 0.0
2016-Feb-01 07:33N 53°26' W 002°60'0 0.0
2016-Feb-01 06:33N 53°26' W 002°60'0 0.0
2016-Feb-01 05:33N 53°26' W 002°60'0 0.0
2016-Feb-01 04:33N 53°26' W 002°60'0 0.0
2016-Feb-01 03:33N 53°26' W 002°60'0 0.0
2016-Feb-01 02:33N 53°26' W 002°60'0 0.0
2016-Feb-01 01:33N 53°26' W 002°60'0 0.0
2016-Feb-01 00:33N 53°26' W 002°60'0 0.0
2016-Jan-31 23:33N 53°26' W 002°60'0 0.0
2016-Jan-31 22:33N 53°26' W 002°60'0 0.0
2016-Jan-31 21:33N 53°26' W 002°60'0 0.0
2016-Jan-31 20:33N 53°26' W 002°60'0 0.0
2016-Jan-31 19:34N 53°26' W 002°60'0 0.0
2016-Jan-31 18:33N 53°26' W 002°60'1 1.4
2016-Jan-31 17:33N 53°27' W 003°01'0 0.1
2016-Jan-31 16:33N 53°27' W 003°01'1 0.5
2016-Jan-31 15:33N 53°28' W 003°02'1 0.5
2016-Jan-31 14:33N 53°27' W 003°01'0 0.2
2016-Jan-31 13:33N 53°27' W 003°01'0 0.0
2016-Jan-31 12:33N 53°27' W 003°01'0 0.0
2016-Jan-31 11:33N 53°27' W 003°01'0 0.2
2016-Jan-31 10:33N 53°27' W 003°01'1 0.6
2016-Jan-31 09:33N 53°28' W 003°02'0 0.0
2016-Jan-31 08:33N 53°28' W 003°02'1 0.8
2016-Jan-31 07:34N 53°27' W 003°01'1 0.6
2016-Jan-31 06:33N 53°28' W 003°01'0 0.4
2016-Jan-31 05:34N 53°27' W 003°01'0 0.0
2016-Jan-31 04:34N 53°27' W 003°01'0 0.4
2016-Jan-31 03:33N 53°27' W 003°01'1 0.6
2016-Jan-31 02:33N 53°26' W 003°01'0 0.2
2016-Jan-31 01:33N 53°26' W 003°00'0 0.2
2016-Jan-31 00:34N 53°26' W 003°00'0 0.4
2016-Jan-30 23:33N 53°26' W 002°60'0 0.0
2016-Jan-30 22:33N 53°26' W 002°60'0 0.0
2016-Jan-30 21:34N 53°26' W 002°60'0 0.0
2016-Jan-30 20:34N 53°26' W 002°60'0 0.0
2016-Jan-30 19:33N 53°26' W 002°60'0 0.0
2016-Jan-30 18:34N 53°26' W 002°60'0 0.0
2016-Jan-30 17:33N 53°26' W 002°60'0 0.0
2016-Jan-30 16:34N 53°26' W 002°60'0 0.0
2016-Jan-30 15:33N 53°26' W 002°60'0 0.0
2016-Jan-30 14:33N 53°26' W 002°60'0 0.0
2016-Jan-30 13:33N 53°26' W 002°60'1 1.4
2016-Jan-30 12:33N 53°27' W 003°01'0 0.3
2016-Jan-30 11:33N 53°27' W 003°02'1 1.4
2016-Jan-30 10:33N 53°26' W 002°60'0 0.3
2016-Jan-30 09:33N 53°26' W 003°00'1 1.3
2016-Jan-30 08:33N 53°27' W 003°01'0 0.0
2016-Jan-30 07:33N 53°27' W 003°01'0 0.0
2016-Jan-30 06:33N 53°27' W 003°01'0 0.0
2016-Jan-30 05:33N 53°27' W 003°01'0 0.0
2016-Jan-30 04:33N 53°27' W 003°01'0 0.2
2016-Jan-30 03:33N 53°27' W 003°01'1 0.6
2016-Jan-30 02:33N 53°27' W 003°01'1 0.9
2016-Jan-30 01:33N 53°28' W 003°01'1 1.3
2016-Jan-30 00:33N 53°26' W 003°01'2 2.3
2016-Jan-29 23:33N 53°24' W 003°01'0 0.4
2016-Jan-29 22:33N 53°24' W 003°02'0 0.0
2016-Jan-29 21:33N 53°24' W 003°02'0 0.0
2016-Jan-29 20:33N 53°24' W 003°02'0 0.0
2016-Jan-29 19:33N 53°24' W 003°02'0 0.0
2016-Jan-29 18:33N 53°24' W 003°02'0 0.0
2016-Jan-29 17:33N 53°24' W 003°02'0 0.0
2016-Jan-29 16:33N 53°24' W 003°02'  

Dump ship's entire track history